createdAt,value
2023-03-24T00:01:16.806Z,99285.22
2023-03-24T00:03:46.229Z,99295.72
2023-03-24T00:06:14.214Z,99304.28
2023-03-24T00:08:44.180Z,99303.13
2023-03-24T00:11:12.140Z,99303.59
2023-03-24T00:13:39.664Z,99308.84
2023-03-24T00:16:08.599Z,99316.59
2023-03-24T00:18:37.334Z,99313.41
2023-03-24T00:21:05.017Z,99314.22
2023-03-24T00:23:34.143Z,99319.50
2023-03-24T00:26:03.013Z,99320.75
2023-03-24T00:28:32.090Z,99322.75
2023-03-24T00:30:59.923Z,99319.59
2023-03-24T00:33:27.013Z,99332.47
2023-03-24T00:35:54.580Z,99332.47
2023-03-24T00:38:21.691Z,99334.13
2023-03-24T00:40:49.244Z,99340.09
2023-03-24T00:43:16.859Z,99331.66
2023-03-24T00:45:46.297Z,99340.81
2023-03-24T00:48:14.044Z,99332.00
2023-03-24T00:50:45.679Z,99334.81
2023-03-24T00:53:15.988Z,99346.44
2023-03-24T00:55:46.446Z,99340.00
2023-03-24T00:58:16.778Z,99350.88
2023-03-24T01:00:44.402Z,99354.06
2023-03-24T01:03:11.837Z,99340.69
2023-03-24T01:05:39.011Z,99342.72
2023-03-24T01:08:07.898Z,99341.09
2023-03-24T01:10:36.633Z,99341.44
2023-03-24T01:13:04.354Z,99346.22
2023-03-24T01:15:33.839Z,99351.03
2023-03-24T01:18:02.647Z,99351.75
2023-03-24T01:20:33.507Z,99351.41
2023-03-24T01:23:01.653Z,99354.91
2023-03-24T01:25:29.591Z,99356.13
2023-03-24T01:27:56.645Z,99356.44
2023-03-24T01:30:25.569Z,99367.69
2023-03-24T01:32:53.581Z,99367.69
2023-03-24T01:35:21.612Z,99369.19
2023-03-24T01:37:48.699Z,99378.00
2023-03-24T01:40:19.081Z,99369.91
2023-03-24T01:42:46.349Z,99375.88
2023-03-24T01:45:16.599Z,99369.47
2023-03-24T01:47:43.770Z,99370.63
2023-03-24T01:50:10.949Z,99380.59
2023-03-24T01:52:38.175Z,99385.75
2023-03-24T01:55:08.532Z,99377.66
2023-03-24T01:57:38.740Z,99376.41
2023-03-24T02:00:08.873Z,99383.44
2023-03-24T02:02:36.985Z,99385.41
2023-03-24T02:05:07.523Z,99384.97
2023-03-24T02:07:37.805Z,99395.41
2023-03-24T02:10:07.242Z,99390.47
2023-03-24T02:12:34.416Z,99400.09
2023-03-24T02:15:02.458Z,99399.59
2023-03-24T02:17:32.090Z,99404.31
2023-03-24T02:19:59.549Z,99409.09
2023-03-24T02:22:29.581Z,99416.25
2023-03-24T02:24:59.711Z,99410.50
2023-03-24T02:27:27.973Z,99420.34
2023-03-24T02:29:58.049Z,99423.16
2023-03-24T02:32:26.466Z,99422.09
2023-03-24T02:34:56.631Z,99425.03
2023-03-24T02:37:33.021Z,99430.19
2023-03-24T02:40:03.980Z,99428.91
2023-03-24T02:42:31.335Z,99440.50
2023-03-24T02:44:58.621Z,99436.25
2023-03-24T02:47:31.192Z,99443.53
2023-03-24T02:50:01.285Z,99436.97
2023-03-24T02:52:31.332Z,99440.13
2023-03-24T02:55:01.302Z,99442.59
2023-03-24T02:57:29.690Z,99440.50
2023-03-24T03:00:00.860Z,99442.31
2023-03-24T03:02:31.697Z,99442.31
2023-03-24T03:05:01.409Z,99439.88
2023-03-24T03:07:33.771Z,99446.66
2023-03-24T03:10:02.770Z,99448.66
2023-03-24T03:12:33.601Z,99455.28
2023-03-24T03:15:03.748Z,99448.50
2023-03-24T03:17:33.650Z,99456.81
2023-03-24T03:20:05.736Z,99452.81
2023-03-24T03:22:38.965Z,99452.38
2023-03-24T03:25:07.252Z,99458.31
2023-03-24T03:27:39.511Z,99453.84
2023-03-24T03:30:09.533Z,99461.34
2023-03-24T03:32:40.158Z,99457.38
2023-03-24T03:35:10.164Z,99458.09
2023-03-24T03:37:40.246Z,99459.25
2023-03-24T03:40:12.476Z,99454.78
2023-03-24T03:42:40.315Z,99459.59
2023-03-24T03:45:09.903Z,99460.41
2023-03-24T03:47:37.605Z,99457.47
2023-03-24T03:50:05.107Z,99461.44
2023-03-24T03:52:32.597Z,99459.00
2023-03-24T03:55:00.291Z,99460.50
2023-03-24T03:57:27.339Z,99468.94
2023-03-24T03:59:54.452Z,99467.28
2023-03-24T04:02:27.287Z,99473.59
2023-03-24T04:05:05.650Z,99469.84
2023-03-24T04:07:35.656Z,99472.66
2023-03-24T04:10:05.752Z,99468.19
2023-03-24T04:12:33.166Z,99472.97
2023-03-24T04:15:03.336Z,99469.22
2023-03-24T04:17:33.434Z,99476.50
2023-03-24T04:20:05.985Z,99480.00
2023-03-24T04:22:33.401Z,99480.00
2023-03-24T04:25:08.955Z,99481.03
2023-03-24T04:27:39.087Z,99487.47
2023-03-24T04:30:09.165Z,99489.47
2023-03-24T04:32:41.744Z,99490.63
2023-03-24T04:35:11.739Z,99484.88
2023-03-24T04:37:39.222Z,99492.47
2023-03-24T04:40:10.484Z,99490.69
2023-03-24T04:42:40.054Z,99487.06
2023-03-24T04:45:08.316Z,99489.06
2023-03-24T04:47:38.871Z,99496.19
2023-03-24T04:50:08.311Z,99495.34
2023-03-24T04:52:35.323Z,99494.03
2023-03-24T04:55:03.491Z,99497.69
2023-03-24T04:57:30.722Z,99513.34
2023-03-24T04:59:57.723Z,99510.41
2023-03-24T05:02:24.852Z,99508.66
2023-03-24T05:04:52.011Z,99513.06
2023-03-24T05:07:18.944Z,99508.97
2023-03-24T05:09:46.046Z,99522.06
2023-03-24T05:12:13.492Z,99515.34
2023-03-24T05:14:40.446Z,99513.50
2023-03-24T05:17:07.688Z,99520.72
2023-03-24T05:19:34.729Z,99532.47
2023-03-24T05:22:01.831Z,99538.91
2023-03-24T05:24:28.830Z,99537.13
2023-03-24T05:26:55.925Z,99544.53
2023-03-24T05:29:23.000Z,99544.41
2023-03-24T05:31:50.078Z,99547.19
2023-03-24T05:34:17.122Z,99548.50
2023-03-24T05:36:44.148Z,99540.28
2023-03-24T05:39:11.323Z,99556.78
2023-03-24T05:41:38.308Z,99557.44
2023-03-24T05:44:05.327Z,99560.22
2023-03-24T05:46:32.413Z,99552.84
2023-03-24T05:48:59.441Z,99559.28
2023-03-24T05:51:26.630Z,99552.69
2023-03-24T05:53:53.612Z,99563.09
2023-03-24T05:56:20.719Z,99563.28
2023-03-24T05:58:47.661Z,99563.78
2023-03-24T06:01:14.627Z,99569.25
2023-03-24T06:03:41.896Z,99564.81
2023-03-24T06:06:09.653Z,99567.94
2023-03-24T06:08:38.704Z,99574.56
2023-03-24T06:11:05.927Z,99576.91
2023-03-24T06:13:33.101Z,99567.53
2023-03-24T06:16:03.104Z,99572.63
2023-03-24T06:18:31.003Z,99578.09
2023-03-24T06:20:58.285Z,99575.28
2023-03-24T06:23:26.300Z,99577.97
2023-03-24T06:25:53.752Z,99581.22
2023-03-24T06:28:21.520Z,99581.59
2023-03-24T06:30:49.348Z,99585.03
2023-03-24T06:33:16.648Z,99587.50
2023-03-24T06:35:44.149Z,99584.84
2023-03-24T06:38:12.207Z,99582.59
2023-03-24T06:40:39.332Z,99584.72
2023-03-24T06:43:06.434Z,99582.78
2023-03-24T06:45:34.531Z,99585.22
2023-03-24T06:48:01.473Z,99586.41
2023-03-24T06:50:33.476Z,99575.66
2023-03-24T06:53:01.345Z,99579.16
2023-03-24T06:55:28.452Z,99578.47
2023-03-24T06:57:55.435Z,99582.09
2023-03-24T07:00:22.484Z,99582.09
2023-03-24T07:02:49.587Z,99583.09
2023-03-24T07:05:16.718Z,99589.84
2023-03-24T07:10:14.373Z,99587.56
2023-03-24T07:12:41.624Z,99594.81
2023-03-24T07:15:09.799Z,99598.25
2023-03-24T07:17:37.033Z,99603.22
2023-03-24T07:20:08.660Z,99613.59
2023-03-24T07:22:39.049Z,99611.38
2023-03-24T07:25:06.611Z,99612.84
2023-03-24T07:27:34.840Z,99622.84
2023-03-24T07:30:02.683Z,99624.81
2023-03-24T07:32:30.555Z,99628.22
2023-03-24T07:34:57.903Z,99626.06
2023-03-24T07:37:25.326Z,99626.38
2023-03-24T07:39:52.569Z,99636.59
2023-03-24T07:42:19.705Z,99631.13
2023-03-24T07:44:47.029Z,99631.28
2023-03-24T07:47:14.084Z,99640.66
2023-03-24T07:49:41.112Z,99628.41
2023-03-24T07:52:08.358Z,99633.00
2023-03-24T07:54:35.889Z,99630.84
2023-03-24T07:57:03.179Z,99619.44
2023-03-24T07:59:30.531Z,99624.88
2023-03-24T08:01:59.718Z,99632.28
2023-03-24T08:04:30.269Z,99625.28
2023-03-24T08:06:59.107Z,99627.06
2023-03-24T08:09:26.272Z,99624.91
2023-03-24T08:11:53.665Z,99631.13
2023-03-24T08:14:20.877Z,99638.53
2023-03-24T08:16:48.076Z,99625.38
2023-03-24T08:19:15.350Z,99632.22
2023-03-24T08:21:42.612Z,99636.00
2023-03-24T08:24:09.693Z,99631.81
2023-03-24T08:26:36.938Z,99634.44
2023-03-24T08:29:04.170Z,99638.19
2023-03-24T08:31:33.692Z,99629.06
2023-03-24T08:34:00.828Z,99639.28
2023-03-24T08:36:28.061Z,99651.47
2023-03-24T08:38:57.559Z,99632.78
2023-03-24T08:41:31.244Z,99641.22
2023-03-24T08:43:58.599Z,99639.34
2023-03-24T08:46:25.831Z,99642.63
2023-03-24T08:48:53.307Z,99646.75
2023-03-24T08:51:20.384Z,99648.06
2023-03-24T08:53:47.528Z,99641.63
2023-03-24T08:56:14.817Z,99638.47
2023-03-24T08:58:42.030Z,99650.88
2023-03-24T09:01:09.369Z,99652.53
2023-03-24T09:03:39.976Z,99649.72
2023-03-24T09:06:07.608Z,99659.78
2023-03-24T09:08:34.798Z,99658.59
2023-03-24T09:11:01.945Z,99652.19
2023-03-24T09:13:29.159Z,99657.00
2023-03-24T09:15:59.347Z,99665.06
2023-03-24T09:18:26.643Z,99661.78
2023-03-24T09:20:54.011Z,99661.91
2023-03-24T09:23:22.079Z,99671.03
2023-03-24T09:25:51.102Z,99663.75
2023-03-24T09:28:18.455Z,99657.81
2023-03-24T09:30:45.690Z,99661.63
2023-03-24T09:33:13.341Z,99667.56
2023-03-24T09:35:40.980Z,99651.53
2023-03-24T09:38:08.298Z,99654.34
2023-03-24T09:40:37.705Z,99659.16
2023-03-24T09:43:07.526Z,99657.50
2023-03-24T09:45:37.553Z,99653.41
2023-03-24T09:48:08.320Z,99649.41
2023-03-24T09:53:09.274Z,99643.31
2023-03-24T09:58:07.304Z,99638.88
2023-03-24T10:00:35.162Z,99645.31
2023-03-24T10:03:11.902Z,99644.47
2023-03-24T10:05:44.097Z,99638.88
2023-03-24T10:08:14.148Z,99656.88
2023-03-24T10:10:49.501Z,99646.00
2023-03-24T10:13:20.259Z,99648.81
2023-03-24T10:20:54.134Z,99648.00
2023-03-24T10:23:24.495Z,99656.41
2023-03-24T10:25:54.727Z,99641.41
2023-03-24T10:30:54.337Z,99632.50
2023-03-24T10:38:21.428Z,99634.84
2023-03-24T10:40:48.961Z,99626.44
2023-03-24T10:43:20.048Z,99632.03
2023-03-24T10:45:49.825Z,99630.59
2023-03-24T10:48:34.421Z,99635.25
2023-03-24T10:51:01.516Z,99669.28
2023-03-24T10:53:28.979Z,99678.41
2023-03-24T10:55:56.606Z,99662.22
2023-03-24T10:58:26.814Z,99655.31
2023-03-24T11:00:55.029Z,99658.81
2023-03-24T11:03:27.619Z,99649.00
2023-03-24T11:05:57.859Z,99648.19
2023-03-24T11:08:29.056Z,99641.06
2023-03-24T11:10:56.236Z,99635.13
2023-03-24T11:15:53.371Z,99626.00
2023-03-24T11:18:21.768Z,99630.59
2023-03-24T11:20:53.994Z,99627.78
2023-03-24T11:23:22.572Z,99614.72
2023-03-24T11:25:53.868Z,99625.72
2023-03-24T11:28:25.701Z,99633.47
2023-03-24T11:30:54.405Z,99632.31
2023-03-24T11:33:35.624Z,99636.56
2023-03-24T11:36:10.604Z,99631.75
2023-03-24T11:38:38.174Z,99631.53
2023-03-24T11:41:06.422Z,99638.16
2023-03-24T11:43:35.955Z,99630.19
2023-03-24T11:46:06.071Z,99654.75
2023-03-24T11:48:36.126Z,99635.25
2023-03-24T11:51:03.705Z,99650.25
2023-03-24T11:53:33.901Z,99641.47
2023-03-24T11:56:06.215Z,99660.47
2023-03-24T11:58:36.954Z,99643.22
2023-03-24T12:03:42.418Z,99648.84
2023-03-24T12:06:12.633Z,99634.34
2023-03-24T12:08:47.073Z,99628.72
2023-03-24T12:11:16.192Z,99627.19
2023-03-24T12:13:49.518Z,99624.75
2023-03-24T12:16:19.721Z,99631.88
2023-03-24T12:18:52.122Z,99631.88
2023-03-24T12:21:19.395Z,99631.75
2023-03-24T12:23:49.369Z,99635.03
2023-03-24T12:31:20.848Z,99620.38
2023-03-24T12:33:53.166Z,99615.94
2023-03-24T12:38:50.680Z,99634.31
2023-03-24T12:41:21.444Z,99638.28
2023-03-24T12:43:52.790Z,99631.00
2023-03-24T12:46:21.459Z,99633.69
2023-03-24T12:51:29.826Z,99638.31
2023-03-24T12:54:06.426Z,99642.63
2023-03-24T12:56:36.385Z,99641.34
2023-03-24T12:59:08.998Z,99634.41
2023-03-24T13:01:36.388Z,99629.50
2023-03-24T13:06:35.218Z,99621.19
2023-03-24T13:16:31.315Z,99601.91
2023-03-24T13:19:00.736Z,99612.31
2023-03-24T13:21:30.009Z,99597.06
2023-03-24T13:24:00.259Z,99594.63
2023-03-24T13:26:28.148Z,99587.38
2023-03-24T13:28:58.258Z,99579.66
2023-03-24T13:31:26.851Z,99587.25
2023-03-24T13:33:54.859Z,99585.38
2023-03-24T13:36:25.153Z,99570.84
2023-03-24T13:38:53.034Z,99571.22
2023-03-24T13:41:21.654Z,99569.56
2023-03-24T13:43:51.199Z,99559.50
2023-03-24T13:48:46.518Z,99552.72
2023-03-24T13:51:17.734Z,99541.00
2023-03-24T13:53:51.456Z,99546.84
2023-03-24T13:56:21.449Z,99574.44
2023-03-24T13:58:49.706Z,99611.66
2023-03-24T14:01:19.050Z,99618.63
2023-03-24T14:06:18.123Z,99588.03
2023-03-24T14:08:46.740Z,99582.91
2023-03-24T14:11:16.969Z,99578.78
2023-03-24T14:16:17.424Z,99586.25
2023-03-24T14:18:45.151Z,99568.13
2023-03-24T14:23:42.178Z,99547.44
2023-03-24T14:26:12.430Z,99550.25
2023-03-24T14:28:41.217Z,99539.06
2023-03-24T14:31:10.520Z,99536.00
2023-03-24T14:33:38.339Z,99526.34
2023-03-24T14:38:36.162Z,99553.72
2023-03-24T14:41:06.550Z,99536.78
2023-03-24T14:46:05.414Z,99528.84
2023-03-24T14:48:35.224Z,99534.16
2023-03-24T14:53:36.205Z,99518.78
2023-03-24T14:56:03.652Z,99530.06
2023-03-24T14:58:36.479Z,99530.75
2023-03-24T15:01:07.505Z,99527.00
2023-03-24T15:03:38.508Z,99513.31
2023-03-24T15:08:37.910Z,99521.41
2023-03-24T15:11:06.904Z,99533.91
2023-03-24T15:13:34.725Z,99543.63
2023-03-24T15:16:04.847Z,99520.19
2023-03-24T15:18:32.058Z,99553.59
2023-03-24T15:20:59.374Z,99577.84
2023-03-24T15:23:28.778Z,99578.47
2023-03-24T15:25:56.458Z,99586.69
2023-03-24T15:30:54.735Z,99572.59
2023-03-24T15:33:22.492Z,99555.09
2023-03-24T15:35:55.282Z,99555.25
2023-03-24T15:38:29.202Z,99559.47
2023-03-24T15:40:58.915Z,99536.81
2023-03-24T15:43:26.410Z,99548.53
2023-03-24T15:46:04.524Z,99533.78
2023-03-24T15:48:38.390Z,99508.66
2023-03-24T15:51:07.542Z,99517.91
2023-03-24T15:56:07.777Z,99547.75
2023-03-24T15:58:43.430Z,99530.56
2023-03-24T16:01:14.433Z,99525.78
2023-03-24T16:03:43.583Z,99520.63
2023-03-24T16:06:13.697Z,99513.50
2023-03-24T16:08:42.335Z,99515.50
2023-03-24T16:11:12.316Z,99508.34
2023-03-24T16:13:41.441Z,99510.50
2023-03-24T16:16:17.929Z,99504.50
2023-03-24T16:18:46.193Z,99503.34
2023-03-24T16:21:13.450Z,99506.28
2023-03-24T16:26:13.222Z,99506.41
2023-03-24T16:28:40.471Z,99509.69
2023-03-24T16:31:08.209Z,99506.53
2023-03-24T16:33:36.259Z,99500.94
2023-03-24T16:36:03.798Z,99496.81
2023-03-24T16:38:31.137Z,99492.84
2023-03-24T16:40:58.412Z,99495.19
2023-03-24T16:45:54.768Z,99516.00
2023-03-24T16:48:22.351Z,99575.31
2023-03-24T16:53:18.186Z,99563.63
2023-03-24T16:55:47.533Z,99571.56
2023-03-24T16:58:16.901Z,99562.66
2023-03-24T17:03:14.373Z,99549.91
2023-03-24T17:05:44.456Z,99551.06
2023-03-24T17:08:12.076Z,99556.81
2023-03-24T17:10:39.717Z,99552.16
2023-03-24T17:13:06.897Z,99546.19
2023-03-24T17:15:34.224Z,99555.56
2023-03-24T17:18:01.280Z,99580.97
2023-03-24T17:20:29.990Z,99580.66
2023-03-24T17:22:57.323Z,99586.78
2023-03-24T17:25:24.566Z,99564.28
2023-03-24T17:27:51.605Z,99557.97
2023-03-24T17:30:20.999Z,99552.03
2023-03-24T17:35:16.778Z,99549.34
2023-03-24T17:37:43.952Z,99562.69
2023-03-24T17:40:12.654Z,99565.47
2023-03-24T17:42:41.112Z,99554.25
2023-03-24T17:45:10.171Z,99564.31
2023-03-24T17:47:37.412Z,99566.31
2023-03-24T17:52:37.816Z,99582.81
2023-03-24T17:55:06.020Z,99570.75
2023-03-24T17:57:33.213Z,99552.25
2023-03-24T18:00:00.686Z,99550.63
2023-03-24T18:02:28.020Z,99548.28
2023-03-24T18:04:55.154Z,99548.16
2023-03-24T18:12:18.252Z,99564.88
2023-03-24T18:17:12.296Z,99564.41
2023-03-24T18:19:40.965Z,99560.78
2023-03-24T18:22:08.168Z,99566.41
2023-03-24T18:24:36.166Z,99566.75
2023-03-24T18:27:04.143Z,99569.56
2023-03-24T18:29:31.016Z,99572.34
2023-03-24T18:31:58.450Z,99576.34
2023-03-24T18:34:25.613Z,99577.84
2023-03-24T18:36:53.385Z,99573.41
2023-03-24T18:39:20.465Z,99580.50
2023-03-24T18:44:16.005Z,99582.69
2023-03-24T18:46:44.185Z,99585.06
2023-03-24T18:49:15.101Z,99592.16
2023-03-24T18:51:43.896Z,99594.97
2023-03-24T18:54:12.129Z,99590.06
2023-03-24T18:56:39.298Z,99593.19
2023-03-24T18:59:06.550Z,99594.50
2023-03-24T19:01:36.224Z,99591.81
2023-03-24T19:04:03.399Z,99588.19
2023-03-24T19:06:31.924Z,99595.59
2023-03-24T19:08:59.907Z,99596.41
2023-03-24T19:11:27.527Z,99598.50
2023-03-24T19:13:56.505Z,99602.31
2023-03-24T19:16:23.871Z,99595.19
2023-03-24T19:18:53.236Z,99595.66
2023-03-24T19:21:23.490Z,99592.16
2023-03-24T19:23:53.229Z,99586.56
2023-03-24T19:26:21.098Z,99590.66
2023-03-24T19:28:48.248Z,99592.28
2023-03-24T19:31:17.684Z,99589.13
2023-03-24T19:38:38.912Z,99598.38
2023-03-24T19:41:07.294Z,99608.13
2023-03-24T19:43:35.072Z,99598.03
2023-03-24T19:46:02.223Z,99595.22
2023-03-24T19:48:29.614Z,99594.06
2023-03-24T19:50:56.960Z,99591.59
2023-03-24T19:53:24.790Z,99584.31
2023-03-24T19:55:51.921Z,99587.13
2023-03-24T19:58:19.214Z,99591.47
2023-03-24T20:00:46.257Z,99580.56
2023-03-24T20:03:13.313Z,99583.03
2023-03-24T20:05:40.284Z,99584.53
2023-03-24T20:08:07.181Z,99576.47
2023-03-24T20:10:35.995Z,99582.44
2023-03-24T20:13:03.042Z,99577.63
2023-03-24T20:15:32.183Z,99579.16
2023-03-24T20:17:59.238Z,99577.97
2023-03-24T20:20:26.277Z,99578.34
2023-03-24T20:22:53.296Z,99588.25
2023-03-24T20:25:20.388Z,99581.81
2023-03-24T20:27:48.121Z,99582.31
2023-03-24T20:30:17.717Z,99583.78
2023-03-24T20:32:44.958Z,99580.84
2023-03-24T20:35:12.145Z,99590.19
2023-03-24T20:37:39.352Z,99583.41
2023-03-24T20:40:07.358Z,99582.91
2023-03-24T20:42:36.485Z,99596.28
2023-03-24T20:45:04.020Z,99587.38
2023-03-24T20:47:31.048Z,99573.34
2023-03-24T20:49:57.967Z,99577.50
2023-03-24T20:52:25.197Z,99580.53
2023-03-24T20:54:52.398Z,99576.91
2023-03-24T20:57:19.511Z,99583.56
2023-03-24T20:59:48.462Z,99586.38
2023-03-24T21:02:16.207Z,99587.66
2023-03-24T21:04:43.486Z,99582.25
2023-03-24T21:09:39.415Z,99594.50
2023-03-24T21:12:07.182Z,99590.06
2023-03-24T21:14:35.120Z,99580.34
2023-03-24T21:22:03.877Z,99591.56
2023-03-24T21:24:31.934Z,99599.03
2023-03-24T21:27:00.462Z,99588.63
2023-03-24T21:29:27.533Z,99601.22
2023-03-24T21:31:54.575Z,99584.88
2023-03-24T21:34:21.571Z,99581.56
2023-03-24T21:36:53.880Z,99582.75
2023-03-24T21:39:20.718Z,99595.63
2023-03-24T21:44:14.392Z,99590.06
2023-03-24T21:46:42.713Z,99590.75
2023-03-24T21:49:11.356Z,99602.19
2023-03-24T21:51:38.212Z,99598.56
2023-03-24T21:54:07.001Z,99607.03
2023-03-24T21:56:34.976Z,99612.50
2023-03-24T21:59:02.077Z,99598.81
2023-03-24T22:01:29.036Z,99604.56
2023-03-24T22:03:56.135Z,99607.91
2023-03-24T22:06:23.562Z,99604.31
2023-03-24T22:08:53.444Z,99614.41
2023-03-24T22:11:20.397Z,99614.25
2023-03-24T22:13:47.368Z,99620.06
2023-03-24T22:18:41.752Z,99616.97
2023-03-24T22:21:11.830Z,99625.22
2023-03-24T22:23:40.478Z,99615.19
2023-03-24T22:26:10.703Z,99622.75
2023-03-24T22:28:38.284Z,99627.41
2023-03-24T22:31:07.919Z,99632.38
2023-03-24T22:33:34.868Z,99625.44
2023-03-24T22:36:02.320Z,99633.03
2023-03-24T22:38:30.691Z,99620.13
2023-03-24T22:40:58.304Z,99618.81
2023-03-24T22:43:25.524Z,99614.50
2023-03-24T22:45:53.319Z,99631.44
2023-03-24T22:48:20.569Z,99633.75
2023-03-24T22:50:47.573Z,99631.38
2023-03-24T22:53:14.427Z,99650.47
2023-03-24T22:55:42.437Z,99643.72
2023-03-24T22:58:09.442Z,99639.91
2023-03-24T23:00:36.709Z,99644.97
2023-03-24T23:03:04.443Z,99649.94
2023-03-24T23:05:31.836Z,99642.47
2023-03-24T23:08:01.046Z,99632.91
2023-03-24T23:10:28.283Z,99639.47
2023-03-24T23:12:55.167Z,99642.44
2023-03-24T23:15:23.484Z,99644.69
2023-03-24T23:17:51.852Z,99650.28
2023-03-24T23:20:20.293Z,99627.31
2023-03-24T23:22:48.054Z,99645.78
2023-03-24T23:25:15.510Z,99649.06
2023-03-24T23:27:42.852Z,99657.97
2023-03-24T23:30:11.318Z,99653.66
2023-03-24T23:32:39.329Z,99663.72
2023-03-24T23:37:33.284Z,99661.06
2023-03-24T23:40:03.616Z,99649.81
2023-03-24T23:42:32.120Z,99661.06
2023-03-24T23:44:58.996Z,99666.34
2023-03-24T23:47:26.248Z,99682.03
2023-03-24T23:49:53.340Z,99676.75
2023-03-24T23:52:20.446Z,99675.59
2023-03-24T23:54:47.313Z,99676.03
2023-03-24T23:57:16.456Z,99659.56
2023-03-24T23:59:43.426Z,99671.63
